createdAt,value
2018-03-20T00:01:31.614Z,-3.10
2018-03-20T00:03:59.707Z,-3.10
2018-03-20T00:06:27.922Z,-3.20
2018-03-20T00:08:56.525Z,-3.20
2018-03-20T00:11:24.188Z,-3.20
2018-03-20T00:13:51.799Z,-3.30
2018-03-20T00:16:19.389Z,-3.30
2018-03-20T00:18:47.778Z,-3.30
2018-03-20T00:21:16.134Z,-3.30
2018-03-20T00:23:43.710Z,-3.40
2018-03-20T00:26:11.321Z,-3.30
2018-03-20T00:28:39.321Z,-3.30
2018-03-20T00:31:06.942Z,-3.30
2018-03-20T00:33:34.520Z,-3.30
2018-03-20T00:36:02.106Z,-3.30
2018-03-20T00:38:29.682Z,-3.30
2018-03-20T00:40:58.056Z,-3.30
2018-03-20T00:43:26.450Z,-3.30
2018-03-20T00:45:54.147Z,-3.30
2018-03-20T00:48:22.524Z,-3.30
2018-03-20T00:50:51.142Z,-3.30
2018-03-20T00:53:18.751Z,-3.30
2018-03-20T00:55:46.379Z,-3.30
2018-03-20T00:58:14.788Z,-3.30
2018-03-20T01:00:42.744Z,-3.30
2018-03-20T01:03:10.424Z,-3.30
2018-03-20T01:05:39.133Z,-3.30
2018-03-20T01:08:06.848Z,-3.40
2018-03-20T01:10:34.501Z,-3.40
2018-03-20T01:13:02.163Z,-3.40
2018-03-20T01:15:29.820Z,-3.40
2018-03-20T01:17:58.190Z,-3.50
2018-03-20T01:20:27.446Z,-3.50
2018-03-20T01:22:55.096Z,-3.50
2018-03-20T01:25:23.466Z,-3.50
2018-03-20T01:27:51.137Z,-3.60
2018-03-20T01:30:18.767Z,-3.60
2018-03-20T01:32:46.496Z,-3.60
2018-03-20T01:35:14.119Z,-3.70
2018-03-20T01:37:41.694Z,-3.70
2018-03-20T01:40:09.331Z,-3.60
2018-03-20T01:42:37.046Z,-3.70
2018-03-20T01:45:04.838Z,-3.70
2018-03-20T01:47:32.414Z,-3.70
2018-03-20T01:49:59.974Z,-3.70
2018-03-20T01:52:27.544Z,-3.80
2018-03-20T01:54:55.282Z,-3.70
2018-03-20T01:57:23.657Z,-3.80
2018-03-20T01:59:52.007Z,-3.90
2018-03-20T02:02:19.610Z,-3.90
2018-03-20T02:04:48.220Z,-3.80
2018-03-20T02:07:15.994Z,-3.90
2018-03-20T02:09:43.604Z,-3.80
2018-03-20T02:12:11.168Z,-3.90
2018-03-20T02:14:38.734Z,-4.00
2018-03-20T02:17:07.070Z,-4.00
2018-03-20T02:19:34.638Z,-4.00
2018-03-20T02:22:02.417Z,-4.00
2018-03-20T02:24:30.485Z,-4.00
2018-03-20T02:26:58.889Z,-4.00
2018-03-20T02:29:26.447Z,-4.00
2018-03-20T02:31:54.042Z,-4.00
2018-03-20T02:34:21.629Z,-3.90
2018-03-20T02:36:49.191Z,-3.90
2018-03-20T02:39:16.790Z,-3.90
2018-03-20T02:41:45.152Z,-3.90
2018-03-20T02:44:12.719Z,-4.00
2018-03-20T02:46:40.278Z,-3.80
2018-03-20T02:49:07.848Z,-3.80
2018-03-20T02:51:35.443Z,-3.80
2018-03-20T02:54:02.993Z,-3.70
2018-03-20T02:56:30.556Z,-3.70
2018-03-20T02:58:58.159Z,-3.60
2018-03-20T03:01:25.762Z,-3.60
2018-03-20T03:03:54.102Z,-3.60
2018-03-20T03:06:21.670Z,-3.70
2018-03-20T03:08:49.230Z,-3.60
2018-03-20T03:11:16.803Z,-3.60
2018-03-20T03:13:44.362Z,-3.50
2018-03-20T03:16:11.917Z,-3.50
2018-03-20T03:18:39.696Z,-3.40
2018-03-20T03:21:07.245Z,-3.50
2018-03-20T03:23:35.579Z,-3.40
2018-03-20T03:26:03.129Z,-3.50
2018-03-20T03:28:30.692Z,-3.30
2018-03-20T03:30:58.296Z,-3.30
2018-03-20T03:33:25.858Z,-3.30
2018-03-20T03:35:53.430Z,-3.20
2018-03-20T03:38:20.979Z,-3.10
2018-03-20T03:40:49.302Z,-3.20
2018-03-20T03:43:16.870Z,-3.20
2018-03-20T03:45:44.422Z,-3.30
2018-03-20T03:48:11.984Z,-3.20
2018-03-20T03:50:39.569Z,-3.20
2018-03-20T03:53:07.156Z,-3.20
2018-03-20T03:55:34.749Z,-3.30
2018-03-20T03:58:02.408Z,-3.30
2018-03-20T04:00:29.970Z,-3.20
2018-03-20T04:02:57.574Z,-3.20
2018-03-20T04:05:25.147Z,-3.20
2018-03-20T04:07:52.758Z,-3.20
2018-03-20T04:10:21.078Z,-3.20
2018-03-20T04:12:48.682Z,-3.20
2018-03-20T04:15:16.248Z,-3.20
2018-03-20T04:17:43.855Z,-3.10
2018-03-20T04:20:11.433Z,-3.10
2018-03-20T04:22:39.325Z,-3.00
2018-03-20T04:25:07.666Z,-2.90
2018-03-20T04:27:35.247Z,-2.90
2018-03-20T04:30:02.802Z,-2.80
2018-03-20T04:32:30.403Z,-2.80
2018-03-20T04:34:57.957Z,-2.70
2018-03-20T04:37:25.549Z,-2.60
2018-03-20T04:39:53.121Z,-2.70
2018-03-20T04:42:20.678Z,-2.60
2018-03-20T04:44:48.266Z,-2.60
2018-03-20T04:47:15.814Z,-2.60
2018-03-20T04:49:43.411Z,-2.70
2018-03-20T04:52:11.057Z,-2.60
2018-03-20T04:54:39.002Z,-2.60
2018-03-20T04:57:06.559Z,-2.60
2018-03-20T04:59:34.212Z,-2.60
2018-03-20T05:02:01.798Z,-2.60
2018-03-20T05:04:29.420Z,-2.60
2018-03-20T05:06:56.997Z,-2.60
2018-03-20T05:09:24.634Z,-2.60
2018-03-20T05:11:52.216Z,-2.60
2018-03-20T05:14:20.570Z,-2.70
2018-03-20T05:16:48.130Z,-2.70
2018-03-20T05:22:38.318Z,-2.70
2018-03-20T05:25:06.669Z,-2.70
2018-03-20T05:27:34.414Z,-2.80
2018-03-20T05:32:16.618Z,-2.80
2018-03-20T05:34:45.914Z,-2.80
2018-03-20T05:37:14.672Z,-2.60
2018-03-20T05:39:43.108Z,-2.50
2018-03-20T05:42:10.744Z,-2.60
2018-03-20T05:44:39.306Z,-2.50
2018-03-20T05:47:26.100Z,-2.50
2018-03-20T05:49:59.433Z,-2.50
2018-03-20T05:52:30.118Z,-2.40
2018-03-20T05:54:57.723Z,-2.40
2018-03-20T05:57:25.352Z,-2.30
2018-03-20T05:59:52.988Z,-2.30
2018-03-20T06:02:21.363Z,-2.10
2018-03-20T06:04:48.951Z,-2.20
2018-03-20T06:07:17.280Z,-2.00
2018-03-20T06:09:44.878Z,-2.00
2018-03-20T06:12:12.498Z,-1.90
2018-03-20T06:14:40.082Z,-1.80
2018-03-20T06:17:07.697Z,-1.70
2018-03-20T06:19:35.308Z,-1.70
2018-03-20T06:22:03.658Z,-1.50
2018-03-20T06:24:31.266Z,-1.60
2018-03-20T06:26:59.626Z,-1.50
2018-03-20T06:29:27.220Z,-1.50
2018-03-20T06:31:55.801Z,-1.40
2018-03-20T06:34:23.368Z,-1.50
2018-03-20T06:36:51.822Z,-1.40
2018-03-20T06:39:19.383Z,-1.40
2018-03-20T06:41:47.039Z,-1.40
2018-03-20T06:44:15.366Z,-1.30
2018-03-20T06:46:42.968Z,-1.40
2018-03-20T06:49:10.570Z,-1.40
2018-03-20T06:51:39.205Z,-1.20
2018-03-20T06:54:06.784Z,-1.30
2018-03-20T06:56:34.397Z,-1.20
2018-03-20T06:59:01.977Z,-1.20
2018-03-20T07:01:30.519Z,-1.20
2018-03-20T07:03:58.112Z,-1.20
2018-03-20T07:06:25.709Z,-1.20
2018-03-20T07:08:53.301Z,-1.10
2018-03-20T07:11:21.707Z,-1.10
2018-03-20T07:13:49.312Z,-1.10
2018-03-20T07:16:16.932Z,-1.10
2018-03-20T07:18:45.273Z,-1.10
2018-03-20T07:21:13.181Z,-1.10
2018-03-20T07:23:40.801Z,-1.10
2018-03-20T07:26:08.470Z,-1.00
2018-03-20T07:28:36.072Z,-1.00
2018-03-20T07:31:03.679Z,-0.90
2018-03-20T07:33:31.272Z,-0.90
2018-03-20T07:35:59.669Z,-0.80
2018-03-20T07:38:28.013Z,-0.80
2018-03-20T07:40:55.682Z,-0.80
2018-03-20T07:43:23.262Z,-0.80
2018-03-20T07:45:50.884Z,-0.70
2018-03-20T07:48:18.503Z,-0.80
2018-03-20T07:50:46.137Z,-0.80
2018-03-20T07:53:13.718Z,-0.70
2018-03-20T07:55:41.306Z,-0.70
2018-03-20T07:58:08.890Z,-0.70
2018-03-20T08:00:36.510Z,-0.60
2018-03-20T08:03:04.144Z,-0.70
2018-03-20T08:05:31.790Z,-0.70
2018-03-20T08:07:59.370Z,-0.60
2018-03-20T08:10:26.996Z,-0.60
2018-03-20T08:12:55.370Z,-0.70
2018-03-20T08:15:22.996Z,-0.70
2018-03-20T08:17:50.632Z,-0.50
2018-03-20T08:20:18.243Z,-0.60
2018-03-20T08:22:46.702Z,-0.50
2018-03-20T08:25:15.075Z,-0.50
2018-03-20T08:27:42.718Z,-0.50
2018-03-20T08:30:10.371Z,-0.50
2018-03-20T08:32:38.082Z,-0.50
2018-03-20T08:35:05.697Z,-0.50
2018-03-20T08:37:34.054Z,-0.50
2018-03-20T08:40:01.641Z,-0.60
2018-03-20T08:42:30.545Z,-0.50
2018-03-20T08:44:58.225Z,-0.50
2018-03-20T08:47:26.646Z,-0.40
2018-03-20T08:49:54.287Z,-0.40
2018-03-20T08:52:22.726Z,-0.30
2018-03-20T08:54:50.349Z,-0.30
2018-03-20T08:57:18.746Z,-0.30
2018-03-20T08:59:47.202Z,-0.20
2018-03-20T09:02:14.772Z,-0.30
2018-03-20T09:04:43.125Z,-0.20
2018-03-20T09:07:10.705Z,-0.30
2018-03-20T09:09:38.451Z,-0.20
2018-03-20T09:12:06.883Z,-0.20
2018-03-20T09:14:34.518Z,-0.20
2018-03-20T09:17:02.941Z,-0.20
2018-03-20T09:19:30.555Z,-0.20
2018-03-20T09:21:58.188Z,-0.20
2018-03-20T09:24:25.852Z,-0.20
2018-03-20T09:26:53.952Z,-0.20
2018-03-20T09:29:21.664Z,-0.20
2018-03-20T09:31:49.307Z,-0.20
2018-03-20T09:34:16.876Z,-0.20
2018-03-20T09:36:44.506Z,-0.20
2018-03-20T09:39:14.119Z,-0.20
2018-03-20T09:41:42.718Z,-0.30
2018-03-20T09:44:10.348Z,-0.20
2018-03-20T09:46:38.112Z,-0.20
2018-03-20T09:49:06.626Z,-0.10
2018-03-20T09:51:34.189Z,-0.10
2018-03-20T09:54:02.478Z,-0.10
2018-03-20T09:56:30.076Z,-0.10
2018-03-20T09:58:57.688Z,0.00
2018-03-20T10:01:25.294Z,0.00
2018-03-20T10:03:52.883Z,0.00
2018-03-20T10:06:20.494Z,0.00
2018-03-20T10:08:48.165Z,0.00
2018-03-20T10:11:17.405Z,0.10
2018-03-20T10:13:45.428Z,0.00
2018-03-20T10:16:13.022Z,0.00
2018-03-20T10:18:40.868Z,0.10
2018-03-20T10:21:09.521Z,0.10
2018-03-20T10:23:38.651Z,0.10
2018-03-20T10:26:06.315Z,0.00
2018-03-20T10:28:33.927Z,0.10
2018-03-20T10:31:01.517Z,0.10
2018-03-20T10:33:29.086Z,0.10
2018-03-20T10:35:56.702Z,0.20
2018-03-20T10:38:24.300Z,0.30
2018-03-20T10:40:51.982Z,0.30
2018-03-20T10:43:19.557Z,0.30
2018-03-20T10:45:47.159Z,0.40
2018-03-20T10:48:14.784Z,0.50
2018-03-20T10:50:42.417Z,0.60
2018-03-20T10:53:11.660Z,0.70
2018-03-20T10:55:39.433Z,0.60
2018-03-20T10:58:07.033Z,0.70
2018-03-20T11:03:41.845Z,0.90
2018-03-20T11:06:10.171Z,1.00
2018-03-20T11:09:56.253Z,1.00
2018-03-20T11:12:24.584Z,1.00
2018-03-20T11:17:39.181Z,1.20
2018-03-20T11:20:06.772Z,1.20
2018-03-20T11:22:34.338Z,1.40
2018-03-20T11:26:16.139Z,1.80
2018-03-20T11:28:43.753Z,1.90
2018-03-20T11:31:11.338Z,2.10
2018-03-20T11:33:39.381Z,2.30
2018-03-20T11:36:07.044Z,2.40
2018-03-20T11:38:34.649Z,2.50
2018-03-20T11:41:02.284Z,2.60
2018-03-20T11:43:29.936Z,2.50
2018-03-20T11:45:58.340Z,2.50
2018-03-20T11:48:26.015Z,2.40
2018-03-20T11:50:55.029Z,2.60
2018-03-20T11:53:22.641Z,2.40
2018-03-20T11:55:50.304Z,2.50
2018-03-20T11:58:17.964Z,2.60
2018-03-20T12:00:45.566Z,2.70
2018-03-20T12:03:13.199Z,2.80
2018-03-20T12:05:40.831Z,3.00
2018-03-20T12:11:14.913Z,3.10
2018-03-20T12:13:42.558Z,3.10
2018-03-20T12:16:10.499Z,3.10
2018-03-20T12:18:38.927Z,3.10
2018-03-20T12:21:07.726Z,3.10
2018-03-20T12:23:35.754Z,3.10
2018-03-20T12:28:33.491Z,3.30
2018-03-20T12:31:01.071Z,3.30
2018-03-20T12:33:28.679Z,3.40
2018-03-20T12:35:56.289Z,3.30
2018-03-20T12:38:23.913Z,3.20
2018-03-20T12:40:51.519Z,3.30
2018-03-20T12:43:19.870Z,3.30
2018-03-20T12:47:47.791Z,3.30
2018-03-20T12:50:16.218Z,3.40
2018-03-20T12:53:41.890Z,3.40
2018-03-20T12:56:10.091Z,3.50
2018-03-20T12:58:38.183Z,3.70
2018-03-20T13:01:05.769Z,3.70
2018-03-20T13:03:33.337Z,3.60
2018-03-20T13:06:00.959Z,3.50
2018-03-20T13:08:28.528Z,3.40
2018-03-20T13:10:56.138Z,3.50
2018-03-20T13:13:23.763Z,3.70
2018-03-20T13:15:51.383Z,3.90
2018-03-20T13:18:18.960Z,3.90
2018-03-20T13:20:47.000Z,4.00
2018-03-20T13:23:14.633Z,4.00
2018-03-20T13:25:42.163Z,4.20
2018-03-20T13:28:10.521Z,4.30
2018-03-20T13:30:38.198Z,4.50
2018-03-20T13:33:05.791Z,4.30
2018-03-20T13:35:33.864Z,4.40
2018-03-20T13:38:01.502Z,4.40
2018-03-20T13:40:30.181Z,4.50
2018-03-20T13:43:02.642Z,4.70
2018-03-20T13:45:30.226Z,4.70
2018-03-20T13:47:57.782Z,4.80
2018-03-20T13:50:25.477Z,4.80
2018-03-20T13:52:53.107Z,4.90
2018-03-20T13:55:20.772Z,5.00
2018-03-20T13:57:48.527Z,5.10
2018-03-20T14:00:16.889Z,5.20
2018-03-20T14:02:44.471Z,5.10
2018-03-20T14:05:12.064Z,5.10
2018-03-20T14:07:40.435Z,4.80
2018-03-20T14:10:08.786Z,4.90
2018-03-20T14:12:36.382Z,4.80
2018-03-20T14:15:03.966Z,4.80
2018-03-20T14:17:31.545Z,4.80
2018-03-20T14:20:00.220Z,4.80
2018-03-20T14:22:27.804Z,4.90
2018-03-20T14:24:55.415Z,5.00
2018-03-20T14:27:23.773Z,5.20
2018-03-20T14:29:51.363Z,5.10
2018-03-20T14:32:18.938Z,5.20
2018-03-20T14:34:48.144Z,5.10
2018-03-20T14:37:16.560Z,5.20
2018-03-20T14:39:44.924Z,5.30
2018-03-20T14:42:12.520Z,5.30
2018-03-20T14:44:40.906Z,5.50
2018-03-20T14:47:09.446Z,5.50
2018-03-20T14:49:39.764Z,5.40
2018-03-20T14:52:08.290Z,5.70
2018-03-20T14:54:35.892Z,5.60
2018-03-20T14:57:03.466Z,5.70
2018-03-20T14:59:31.127Z,5.80
2018-03-20T15:01:58.733Z,5.80
2018-03-20T15:04:26.347Z,5.60
2018-03-20T15:06:54.749Z,5.70
2018-03-20T15:09:22.935Z,5.60
2018-03-20T15:11:50.583Z,5.80
2018-03-20T15:14:18.575Z,5.80
2018-03-20T15:16:46.171Z,5.80
2018-03-20T15:19:14.515Z,5.50
2018-03-20T15:21:42.085Z,5.50
2018-03-20T15:24:09.719Z,5.40
2018-03-20T15:26:37.318Z,5.60
2018-03-20T15:29:05.069Z,5.80
2018-03-20T15:31:34.440Z,6.00
2018-03-20T15:34:02.208Z,6.10
2018-03-20T15:36:29.820Z,6.10
2018-03-20T15:38:58.346Z,5.90
2018-03-20T15:41:27.273Z,5.80
2018-03-20T15:43:55.173Z,5.80
2018-03-20T15:46:23.988Z,5.80
2018-03-20T15:48:52.346Z,5.90
2018-03-20T15:51:20.801Z,5.90
2018-03-20T15:53:48.425Z,5.90
2018-03-20T15:56:16.008Z,6.00
2018-03-20T15:58:43.616Z,6.10
2018-03-20T16:01:11.977Z,6.30
2018-03-20T16:03:39.984Z,6.20
2018-03-20T16:06:07.690Z,6.40
2018-03-20T16:08:35.295Z,6.30
2018-03-20T16:11:02.885Z,6.30
2018-03-20T16:13:31.208Z,6.30
2018-03-20T16:15:59.546Z,6.40
2018-03-20T16:18:27.546Z,6.30
2018-03-20T16:20:55.218Z,6.30
2018-03-20T16:23:22.805Z,6.30
2018-03-20T16:25:50.456Z,6.30
2018-03-20T16:28:18.048Z,6.40
2018-03-20T16:30:45.705Z,6.40
2018-03-20T16:33:13.296Z,6.40
2018-03-20T16:35:40.854Z,6.30
2018-03-20T16:38:08.426Z,6.30
2018-03-20T16:40:35.983Z,6.10
2018-03-20T16:43:03.564Z,5.90
2018-03-20T16:45:31.993Z,5.90
2018-03-20T16:48:00.322Z,5.90
2018-03-20T16:50:27.954Z,5.90
2018-03-20T16:52:55.607Z,6.00
2018-03-20T16:55:23.178Z,5.90
2018-03-20T16:57:50.752Z,5.80
2018-03-20T17:00:18.362Z,5.80
2018-03-20T17:02:46.026Z,5.60
2018-03-20T17:05:13.638Z,5.50
2018-03-20T17:07:41.219Z,5.40
2018-03-20T17:10:09.625Z,5.30
2018-03-20T17:12:37.350Z,5.30
2018-03-20T17:15:04.946Z,5.20
2018-03-20T17:17:32.600Z,5.10
2018-03-20T17:20:00.979Z,4.80
2018-03-20T17:22:28.641Z,4.70
2018-03-20T17:24:57.093Z,4.60
2018-03-20T17:27:24.626Z,4.60
2018-03-20T17:29:52.210Z,4.60
2018-03-20T17:32:19.858Z,4.50
2018-03-20T17:34:47.471Z,4.40
2018-03-20T17:37:15.060Z,4.30
2018-03-20T17:39:43.423Z,4.20
2018-03-20T17:42:11.015Z,4.20
2018-03-20T17:44:39.356Z,4.20
2018-03-20T17:47:07.558Z,4.10
2018-03-20T17:49:35.226Z,4.10
2018-03-20T17:52:02.800Z,4.00
2018-03-20T17:54:30.506Z,4.00
2018-03-20T17:56:58.049Z,3.90
2018-03-20T17:59:25.602Z,3.90
2018-03-20T18:01:53.922Z,3.80
2018-03-20T18:04:21.510Z,3.70
2018-03-20T18:06:49.116Z,3.70
2018-03-20T18:09:17.521Z,3.60
2018-03-20T18:11:45.502Z,3.60
2018-03-20T18:14:13.439Z,3.60
2018-03-20T18:16:41.154Z,3.50
2018-03-20T18:19:08.765Z,3.50
2018-03-20T18:21:36.448Z,3.50
2018-03-20T18:24:04.144Z,3.40
2018-03-20T18:26:31.718Z,3.30
2018-03-20T18:28:59.283Z,3.30
2018-03-20T18:31:26.904Z,3.20
2018-03-20T18:33:54.503Z,3.20
2018-03-20T18:36:22.055Z,3.20
2018-03-20T18:38:49.641Z,3.10
2018-03-20T18:41:17.210Z,3.10
2018-03-20T18:43:44.815Z,3.00
2018-03-20T18:46:12.378Z,3.00
2018-03-20T18:48:39.973Z,3.00
2018-03-20T18:51:07.526Z,2.90
2018-03-20T18:53:35.102Z,2.90
2018-03-20T18:56:02.645Z,2.80
2018-03-20T18:58:30.596Z,2.80
2018-03-20T19:00:58.927Z,2.70
2018-03-20T19:03:26.592Z,2.70
2018-03-20T19:05:54.215Z,2.70
2018-03-20T19:08:23.123Z,2.60
2018-03-20T19:10:50.745Z,2.60
2018-03-20T19:13:18.433Z,2.70
2018-03-20T19:15:46.023Z,2.60
2018-03-20T19:18:13.615Z,2.60
2018-03-20T19:20:41.158Z,2.60
2018-03-20T19:23:08.765Z,2.60
2018-03-20T19:25:37.167Z,2.50
2018-03-20T19:28:04.740Z,2.50
2018-03-20T19:30:34.607Z,2.50
2018-03-20T19:33:02.202Z,2.40
2018-03-20T19:35:29.826Z,2.40
2018-03-20T19:37:58.158Z,2.40
2018-03-20T19:40:25.725Z,2.30
2018-03-20T19:42:53.310Z,2.30
2018-03-20T19:45:20.901Z,2.30
2018-03-20T19:47:48.486Z,2.30
2018-03-20T19:50:16.099Z,2.20
2018-03-20T19:52:43.683Z,2.20
2018-03-20T19:55:11.304Z,2.20
2018-03-20T19:57:38.922Z,2.20
2018-03-20T20:00:06.519Z,2.20
2018-03-20T20:02:34.140Z,2.10
2018-03-20T20:05:02.515Z,2.10
2018-03-20T20:07:30.106Z,2.00
2018-03-20T20:09:58.504Z,2.00
2018-03-20T20:12:26.823Z,2.00
2018-03-20T20:14:54.412Z,1.90
2018-03-20T20:17:21.958Z,2.00
2018-03-20T20:19:49.562Z,1.90
2018-03-20T20:22:17.196Z,1.90
2018-03-20T20:24:44.779Z,1.90
2018-03-20T20:27:12.363Z,1.90
2018-03-20T20:29:40.802Z,1.90
2018-03-20T20:32:08.454Z,1.90
2018-03-20T20:34:36.132Z,1.80
2018-03-20T20:37:03.689Z,1.80
2018-03-20T20:39:31.287Z,1.80
2018-03-20T20:41:58.843Z,1.80
2018-03-20T20:44:26.445Z,1.80
2018-03-20T20:46:54.007Z,1.80
2018-03-20T20:49:21.595Z,1.70
2018-03-20T20:51:49.924Z,1.70
2018-03-20T20:54:17.516Z,1.70
2018-03-20T20:56:45.126Z,1.70
2018-03-20T20:59:13.474Z,1.60
2018-03-20T21:01:41.059Z,1.60
2018-03-20T21:04:08.643Z,1.60
2018-03-20T21:06:36.254Z,1.60
2018-03-20T21:09:03.879Z,1.60
2018-03-20T21:11:31.484Z,1.50
2018-03-20T21:13:59.912Z,1.50
2018-03-20T21:16:28.295Z,1.40
2018-03-20T21:18:55.909Z,1.50
2018-03-20T21:21:23.465Z,1.40
2018-03-20T21:23:51.044Z,1.40
2018-03-20T21:26:18.597Z,1.40
2018-03-20T21:28:46.165Z,1.40
2018-03-20T21:31:13.726Z,1.40
2018-03-20T21:33:41.322Z,1.30
2018-03-20T21:36:08.910Z,1.30
2018-03-20T21:38:36.518Z,1.20
2018-03-20T21:41:04.840Z,1.30
2018-03-20T21:43:32.667Z,1.20
2018-03-20T21:46:00.232Z,1.20
2018-03-20T21:48:27.805Z,1.20
2018-03-20T21:50:55.382Z,1.20
2018-03-20T21:53:23.011Z,1.20
2018-03-20T21:55:50.572Z,1.10
2018-03-20T21:58:18.142Z,1.10
2018-03-20T22:00:45.738Z,1.10
2018-03-20T22:03:13.315Z,1.10
2018-03-20T22:05:40.909Z,1.10
2018-03-20T22:08:08.542Z,1.10
2018-03-20T22:10:36.110Z,1.00
2018-03-20T22:13:03.678Z,1.00
2018-03-20T22:15:31.259Z,1.00
2018-03-20T22:17:58.845Z,1.00
2018-03-20T22:20:26.708Z,0.90
2018-03-20T22:22:54.283Z,0.90
2018-03-20T22:25:21.879Z,0.90
2018-03-20T22:27:49.435Z,0.90
2018-03-20T22:30:17.026Z,0.80
2018-03-20T22:32:44.586Z,0.80
2018-03-20T22:35:12.169Z,0.80
2018-03-20T22:37:40.331Z,0.80
2018-03-20T22:40:09.134Z,0.70
2018-03-20T22:42:37.231Z,0.70
2018-03-20T22:45:05.611Z,0.70
2018-03-20T22:47:33.615Z,0.70
2018-03-20T22:50:02.789Z,0.70
2018-03-20T22:52:30.407Z,0.60
2018-03-20T22:54:57.985Z,0.60
2018-03-20T22:57:26.561Z,0.60
2018-03-20T22:59:55.747Z,0.60
2018-03-20T23:02:23.883Z,0.60
2018-03-20T23:04:51.537Z,0.60
2018-03-20T23:07:20.365Z,0.60
2018-03-20T23:09:49.064Z,0.50
2018-03-20T23:12:18.060Z,0.50
2018-03-20T23:14:47.167Z,0.50
2018-03-20T23:17:15.193Z,0.50
2018-03-20T23:19:43.464Z,0.40
2018-03-20T23:22:11.656Z,0.40
2018-03-20T23:24:40.826Z,0.40
2018-03-20T23:27:08.989Z,0.40
2018-03-20T23:29:37.290Z,0.40
2018-03-20T23:32:05.950Z,0.40
2018-03-20T23:34:34.045Z,0.30
2018-03-20T23:37:03.535Z,0.40
2018-03-20T23:39:33.129Z,0.30
2018-03-20T23:42:01.236Z,0.40
2018-03-20T23:44:31.161Z,0.30
2018-03-20T23:46:59.958Z,0.30
2018-03-20T23:49:28.138Z,0.30
2018-03-20T23:51:56.531Z,0.30
2018-03-20T23:54:25.364Z,0.30
2018-03-20T23:56:53.563Z,0.30
2018-03-20T23:59:22.564Z,0.20
